sensor_id;sensor_type;location;lat;lon;timestamp;pressure;altitude;pressure_sealevel;temperature;humidity
69245;BME280;56357;52.304;4.870;2023-02-21T00:01:27;102245.44;;;17.95;nan
69245;BME280;56357;52.304;4.870;2023-02-21T00:04:11;102257.00;;;17.99;nan
69245;BME280;56357;52.304;4.870;2023-02-21T00:06:55;102256.16;;;17.98;nan
69245;BME280;56357;52.304;4.870;2023-02-21T00:09:39;102249.72;;;17.98;nan
69245;BME280;56357;52.304;4.870;2023-02-21T00:12:23;102252.25;;;17.99;nan
69245;BME280;56357;52.304;4.870;2023-02-21T00:15:07;102251.91;;;17.96;nan
69245;BME280;56357;52.304;4.870;2023-02-21T00:17:51;102254.94;;;17.94;nan
69245;BME280;56357;52.304;4.870;2023-02-21T00:20:35;102246.78;;;17.93;nan
69245;BME280;56357;52.304;4.870;2023-02-21T00:23:19;102248.72;;;17.92;nan
69245;BME280;56357;52.304;4.870;2023-02-21T00:26:03;102238.50;;;17.86;nan
69245;BME280;56357;52.304;4.870;2023-02-21T00:28:46;102242.28;;;17.92;nan
69245;BME280;56357;52.304;4.870;2023-02-21T00:31:30;102240.81;;;17.89;nan
69245;BME280;56357;52.304;4.870;2023-02-21T00:34:14;102248.13;;;17.90;nan
69245;BME280;56357;52.304;4.870;2023-02-21T00:36:58;102257.03;;;17.87;nan
69245;BME280;56357;52.304;4.870;2023-02-21T00:39:42;102259.81;;;17.87;nan
69245;BME280;56357;52.304;4.870;2023-02-21T00:42:26;102252.88;;;17.90;nan
69245;BME280;56357;52.304;4.870;2023-02-21T00:45:10;102255.19;;;17.81;nan
69245;BME280;56357;52.304;4.870;2023-02-21T00:47:54;102265.69;;;17.86;nan
69245;BME280;56357;52.304;4.870;2023-02-21T00:50:38;102267.25;;;17.82;nan
69245;BME280;56357;52.304;4.870;2023-02-21T00:53:25;102257.38;;;17.79;nan
69245;BME280;56357;52.304;4.870;2023-02-21T00:56:09;102251.78;;;17.79;nan
69245;BME280;56357;52.304;4.870;2023-02-21T00:58:52;102252.28;;;17.76;nan
69245;BME280;56357;52.304;4.870;2023-02-21T01:01:36;102251.78;;;17.79;nan
69245;BME280;56357;52.304;4.870;2023-02-21T01:04:20;102243.88;;;17.76;nan
69245;BME280;56357;52.304;4.870;2023-02-21T01:07:04;102244.75;;;17.77;nan
69245;BME280;56357;52.304;4.870;2023-02-21T01:09:48;102240.22;;;17.76;nan
69245;BME280;56357;52.304;4.870;2023-02-21T01:12:32;102232.06;;;17.74;nan
69245;BME280;56357;52.304;4.870;2023-02-21T01:15:16;102232.06;;;17.74;nan
69245;BME280;56357;52.304;4.870;2023-02-21T01:18:00;102240.72;;;17.73;nan
69245;BME280;56357;52.304;4.870;2023-02-21T01:20:44;102239.00;;;17.72;nan
69245;BME280;56357;52.304;4.870;2023-02-21T01:23:28;102230.84;;;17.70;nan
69245;BME280;56357;52.304;4.870;2023-02-21T01:26:12;102231.56;;;17.66;nan
69245;BME280;56357;52.304;4.870;2023-02-21T01:28:56;102226.34;;;17.69;nan
69245;BME280;56357;52.304;4.870;2023-02-21T01:31:40;102231.97;;;17.69;nan
69245;BME280;56357;52.304;4.870;2023-02-21T01:34:24;102235.59;;;17.70;nan
69245;BME280;56357;52.304;4.870;2023-02-21T01:37:07;102220.16;;;17.67;nan
69245;BME280;56357;52.304;4.870;2023-02-21T01:39:51;102224.28;;;17.65;nan
69245;BME280;56357;52.304;4.870;2023-02-21T01:42:35;102207.31;;;17.60;nan
69245;BME280;56357;52.304;4.870;2023-02-21T01:48:05;102201.50;;;17.61;nan
69245;BME280;56357;52.304;4.870;2023-02-21T01:50:51;102202.94;;;17.64;nan
69245;BME280;56357;52.304;4.870;2023-02-21T01:53:35;102200.91;;;17.59;nan
69245;BME280;56357;52.304;4.870;2023-02-21T01:56:19;102203.69;;;17.59;nan
69245;BME280;56357;52.304;4.870;2023-02-21T01:59:04;102202.34;;;17.62;nan
69245;BME280;56357;52.304;4.870;2023-02-21T02:02:02;102201.50;;;17.61;nan
69245;BME280;56357;52.304;4.870;2023-02-21T02:04:48;102201.97;;;17.58;nan
69245;BME280;56357;52.304;4.870;2023-02-21T02:07:35;102204.16;;;17.56;nan
69245;BME280;56357;52.304;4.870;2023-02-21T02:10:20;102203.81;;;17.53;nan
69245;BME280;56357;52.304;4.870;2023-02-21T02:13:28;102196.03;;;17.55;nan
69245;BME280;56357;52.304;4.870;2023-02-21T02:18:55;102200.53;;;17.56;nan
69245;BME280;56357;52.304;4.870;2023-02-21T02:24:50;102192.84;;;17.51;nan
69245;BME280;56357;52.304;4.870;2023-02-21T02:35:44;102187.75;;;17.48;nan
69245;BME280;56357;52.304;4.870;2023-02-21T02:38:22;102192.25;;;17.49;nan
69245;BME280;56357;52.304;4.870;2023-02-21T02:46:08;102190.56;;;17.48;nan
69245;BME280;56357;52.304;4.870;2023-02-21T02:48:39;102186.50;;;17.44;nan
69245;BME280;56357;52.304;4.870;2023-02-21T02:51:11;102179.69;;;17.40;nan
69245;BME280;56357;52.304;4.870;2023-02-21T02:53:39;102184.19;;;17.41;nan
69245;BME280;56357;52.304;4.870;2023-02-21T02:56:10;102189.41;;;17.37;nan
69245;BME280;56357;52.304;4.870;2023-02-21T02:58:40;102185.50;;;17.38;nan
69245;BME280;56357;52.304;4.870;2023-02-21T03:09:23;102189.16;;;17.39;nan
69245;BME280;56357;52.304;4.870;2023-02-21T03:12:14;102187.94;;;17.35;nan
69245;BME280;56357;52.304;4.870;2023-02-21T03:15:07;102192.13;;;17.44;nan
69245;BME280;56357;52.304;4.870;2023-02-21T03:17:42;102190.88;;;17.40;nan
69245;BME280;56357;52.304;4.870;2023-02-21T03:20:11;102192.13;;;17.44;nan
69245;BME280;56357;52.304;4.870;2023-02-21T03:22:39;102187.84;;;17.42;nan
69245;BME280;56357;52.304;4.870;2023-02-21T03:25:06;102191.25;;;17.44;nan
69245;BME280;56357;52.304;4.870;2023-02-21T03:27:34;102185.66;;;17.44;nan
69245;BME280;56357;52.304;4.870;2023-02-21T03:30:04;102181.28;;;17.48;nan
69245;BME280;56357;52.304;4.870;2023-02-21T03:32:36;102168.72;;;17.50;nan
69245;BME280;56357;52.304;4.870;2023-02-21T03:35:04;102175.19;;;17.51;nan
69245;BME280;56357;52.304;4.870;2023-02-21T03:37:42;102166.91;;;17.44;nan
69245;BME280;56357;52.304;4.870;2023-02-21T03:42:37;102168.50;;;17.52;nan
69245;BME280;56357;52.304;4.870;2023-02-21T03:45:04;102175.81;;;17.53;nan
69245;BME280;56357;52.304;4.870;2023-02-21T03:47:31;102167.41;;;17.53;nan
69245;BME280;56357;52.304;4.870;2023-02-21T03:49:57;102169.59;;;17.51;nan
69245;BME280;56357;52.304;4.870;2023-02-21T03:52:23;102162.66;;;17.53;nan
69245;BME280;56357;52.304;4.870;2023-02-21T03:54:50;102160.09;;;17.52;nan
69245;BME280;56357;52.304;4.870;2023-02-21T03:57:16;102160.94;;;17.52;nan
69245;BME280;56357;52.304;4.870;2023-02-21T03:59:43;102158.63;;;17.49;nan
69245;BME280;56357;52.304;4.870;2023-02-21T04:02:09;102161.78;;;17.53;nan
69245;BME280;56357;52.304;4.870;2023-02-21T04:04:35;102159.34;;;17.45;nan
69245;BME280;56357;52.304;4.870;2023-02-21T04:07:02;102162.53;;;17.36;nan
69245;BME280;56357;52.304;4.870;2023-02-21T04:09:28;102171.91;;;17.42;nan
69245;BME280;56357;52.304;4.870;2023-02-21T04:11:54;102164.94;;;17.45;nan
69245;BME280;56357;52.304;4.870;2023-02-21T04:14:21;102166.28;;;17.42;nan
69245;BME280;56357;52.304;4.870;2023-02-21T04:16:47;102162.13;;;17.45;nan
69245;BME280;56357;52.304;4.870;2023-02-21T04:19:14;102174.44;;;17.32;nan
69245;BME280;56357;52.304;4.870;2023-02-21T04:21:40;102172.50;;;17.44;nan
69245;BME280;56357;52.304;4.870;2023-02-21T04:24:07;102168.72;;;17.50;nan
69245;BME280;56357;52.304;4.870;2023-02-21T04:26:33;102175.56;;;17.54;nan
69245;BME280;56357;52.304;4.870;2023-02-21T04:29:00;102175.56;;;17.54;nan
69245;BME280;56357;52.304;4.870;2023-02-21T04:31:27;102171.06;;;17.53;nan
69245;BME280;56357;52.304;4.870;2023-02-21T04:33:53;102181.28;;;17.48;nan
69245;BME280;56357;52.304;4.870;2023-02-21T04:36:20;102173.59;;;17.55;nan
69245;BME280;56357;52.304;4.870;2023-02-21T04:38:46;102175.56;;;17.54;nan
69245;BME280;56357;52.304;4.870;2023-02-21T04:41:15;102171.53;;;17.50;nan
69245;BME280;56357;52.304;4.870;2023-02-21T04:43:42;102167.28;;;17.59;nan
69245;BME280;56357;52.304;4.870;2023-02-21T04:46:09;102167.28;;;17.59;nan
69245;BME280;56357;52.304;4.870;2023-02-21T04:48:40;102166.41;;;17.59;nan
69245;BME280;56357;52.304;4.870;2023-02-21T04:51:06;102159.50;;;17.61;nan
69245;BME280;56357;52.304;4.870;2023-02-21T04:53:33;102161.06;;;17.57;nan
69245;BME280;56357;52.304;4.870;2023-02-21T04:55:59;102164.25;;;17.49;nan
69245;BME280;56357;52.304;4.870;2023-02-21T04:58:25;102180.78;;;17.51;nan
69245;BME280;56357;52.304;4.870;2023-02-21T05:00:52;102177.13;;;17.62;nan
69245;BME280;56357;52.304;4.870;2023-02-21T05:03:18;102175.78;;;17.64;nan
69245;BME280;56357;52.304;4.870;2023-02-21T05:05:46;102162.91;;;17.63;nan
69245;BME280;56357;52.304;4.870;2023-02-21T05:08:12;102153.41;;;17.53;nan
69245;BME280;56357;52.304;4.870;2023-02-21T05:10:38;102158.53;;;17.56;nan
69245;BME280;56357;52.304;4.870;2023-02-21T05:13:05;102157.75;;;17.60;nan
69245;BME280;56357;52.304;4.870;2023-02-21T05:15:31;102172.50;;;17.67;nan
69245;BME280;56357;52.304;4.870;2023-02-21T05:17:58;102167.63;;;17.63;nan
69245;BME280;56357;52.304;4.870;2023-02-21T05:20:24;102170.97;;;17.48;nan
69245;BME280;56357;52.304;4.870;2023-02-21T05:22:50;102159.59;;;17.55;nan
69245;BME280;56357;52.304;4.870;2023-02-21T05:25:19;102161.94;;;17.58;nan
69245;BME280;56357;52.304;4.870;2023-02-21T05:27:47;102148.56;;;17.48;nan
69245;BME280;56357;52.304;4.870;2023-02-21T05:30:16;102157.66;;;17.55;nan
69245;BME280;56357;52.304;4.870;2023-02-21T05:32:43;102159.13;;;17.58;nan
69245;BME280;56357;52.304;4.870;2023-02-21T05:35:10;102173.13;;;17.58;nan
69245;BME280;56357;52.304;4.870;2023-02-21T05:37:36;102169.31;;;17.64;nan
69245;BME280;56357;52.304;4.870;2023-02-21T05:40:04;102172.03;;;17.59;nan
69245;BME280;56357;52.304;4.870;2023-02-21T05:42:31;102164.72;;;17.69;nan
69245;BME280;56357;52.304;4.870;2023-02-21T05:44:57;102164.59;;;17.64;nan
69245;BME280;56357;52.304;4.870;2023-02-21T05:47:24;102166.94;;;17.56;nan
69245;BME280;56357;52.304;4.870;2023-02-21T05:49:50;102171.03;;;17.65;nan
69245;BME280;56357;52.304;4.870;2023-02-21T05:52:17;102172.00;;;17.70;nan
69245;BME280;56357;52.304;4.870;2023-02-21T05:54:43;102174.19;;;17.68;nan
69245;BME280;56357;52.304;4.870;2023-02-21T05:57:10;102179.91;;;17.73;nan
69245;BME280;56357;52.304;4.870;2023-02-21T05:59:36;102168.84;;;17.78;nan
69245;BME280;56357;52.304;4.870;2023-02-21T06:02:03;102170.78;;;17.78;nan
69245;BME280;56357;52.304;4.870;2023-02-21T06:04:30;102173.31;;;17.79;nan
69245;BME280;56357;52.304;4.870;2023-02-21T06:06:56;102176.88;;;17.75;nan
69245;BME280;56357;52.304;4.870;2023-02-21T06:09:23;102165.81;;;17.57;nan
69245;BME280;56357;52.304;4.870;2023-02-21T06:11:49;102175.66;;;17.71;nan
69245;BME280;56357;52.304;4.870;2023-02-21T06:14:18;102170.69;;;17.61;nan
69245;BME280;56357;52.304;4.870;2023-02-21T06:16:45;102173.84;;;17.76;nan
69245;BME280;56357;52.304;4.870;2023-02-21T06:19:13;102178.47;;;17.71;nan
69245;BME280;56357;52.304;4.870;2023-02-21T06:21:41;102179.91;;;17.73;nan
69245;BME280;56357;52.304;4.870;2023-02-21T06:24:09;102163.69;;;17.75;nan
69245;BME280;56357;52.304;4.870;2023-02-21T06:26:36;102169.44;;;17.80;nan
69245;BME280;56357;52.304;4.870;2023-02-21T06:29:04;102165.16;;;17.78;nan
69245;BME280;56357;52.304;4.870;2023-02-21T06:31:30;102170.78;;;17.78;nan
69245;BME280;56357;52.304;4.870;2023-02-21T06:33:57;102167.47;;;17.81;nan
69245;BME280;56357;52.304;4.870;2023-02-21T06:36:27;102180.16;;;17.72;nan
69245;BME280;56357;52.304;4.870;2023-02-21T06:38:54;102169.78;;;17.84;nan
69245;BME280;56357;52.304;4.870;2023-02-21T06:41:27;102174.06;;;17.86;nan
69245;BME280;56357;52.304;4.870;2023-02-21T06:43:55;102183.41;;;17.92;nan
69245;BME280;56357;52.304;4.870;2023-02-21T06:46:25;102185.97;;;17.93;nan
69245;BME280;56357;52.304;4.870;2023-02-21T06:48:52;102187.31;;;17.91;nan
69245;BME280;56357;52.304;4.870;2023-02-21T06:51:19;102185.38;;;17.80;nan
69245;BME280;56357;52.304;4.870;2023-02-21T06:53:48;102170.66;;;17.84;nan
69245;BME280;56357;52.304;4.870;2023-02-21T06:56:15;102186.47;;;17.90;nan
69245;BME280;56357;52.304;4.870;2023-02-21T06:58:42;102191.31;;;17.95;nan
69245;BME280;56357;52.304;4.870;2023-02-21T07:01:08;102195.63;;;17.86;nan
69245;BME280;56357;52.304;4.870;2023-02-21T07:03:38;102187.88;;;18.04;nan
69245;BME280;56357;52.304;4.870;2023-02-21T07:06:04;102194.59;;;18.03;nan
69245;BME280;56357;52.304;4.870;2023-02-21T07:08:31;102183.47;;;18.08;nan
69245;BME280;56357;52.304;4.870;2023-02-21T07:10:57;102187.88;;;18.04;nan
69245;BME280;56357;52.304;4.870;2023-02-21T07:13:23;102177.06;;;17.96;nan
69245;BME280;56357;52.304;4.870;2023-02-21T07:15:50;102193.75;;;18.03;nan
69245;BME280;56357;52.304;4.870;2023-02-21T07:18:17;102186.81;;;18.05;nan
69245;BME280;56357;52.304;4.870;2023-02-21T07:20:43;102185.22;;;18.09;nan
69245;BME280;56357;52.304;4.870;2023-02-21T07:23:09;102186.66;;;18.00;nan
69245;BME280;56357;52.304;4.870;2023-02-21T07:25:36;102188.63;;;18.11;nan
69245;BME280;56357;52.304;4.870;2023-02-21T07:28:02;102186.97;;;18.15;nan
69245;BME280;56357;52.304;4.870;2023-02-21T07:30:29;102183.09;;;18.16;nan
69245;BME280;56357;52.304;4.870;2023-02-21T07:32:56;102185.59;;;18.29;nan
69245;BME280;56357;52.304;4.870;2023-02-21T07:35:23;102180.00;;;18.29;nan
69245;BME280;56357;52.304;4.870;2023-02-21T07:37:49;102180.28;;;18.16;nan
69245;BME280;56357;52.304;4.870;2023-02-21T07:40:16;102185.25;;;17.98;nan
69245;BME280;56357;52.304;4.870;2023-02-21T07:42:42;102186.19;;;18.03;nan
69245;BME280;56357;52.304;4.870;2023-02-21T07:45:10;102189.09;;;18.08;nan
69245;BME280;56357;52.304;4.870;2023-02-21T07:47:37;102189.69;;;18.10;nan
69245;BME280;56357;52.304;4.870;2023-02-21T07:50:04;102191.53;;;18.05;nan
69245;BME280;56357;52.304;4.870;2023-02-21T07:52:31;102190.81;;;18.09;nan
69245;BME280;56357;52.304;4.870;2023-02-21T07:54:57;102183.75;;;18.07;nan
69245;BME280;56357;52.304;4.870;2023-02-21T07:57:24;102180.19;;;18.11;nan
69245;BME280;56357;52.304;4.870;2023-02-21T07:59:50;102195.03;;;18.12;nan
69245;BME280;56357;52.304;4.870;2023-02-21T08:02:17;102186.44;;;18.02;nan
69245;BME280;56357;52.304;4.870;2023-02-21T08:04:43;102193.00;;;18.07;nan
69245;BME280;56357;52.304;4.870;2023-02-21T08:07:09;102187.41;;;18.07;nan
69245;BME280;56357;52.304;4.870;2023-02-21T08:09:36;102195.22;;;18.05;nan
69245;BME280;56357;52.304;4.870;2023-02-21T08:12:04;102199.44;;;18.08;nan
69245;BME280;56357;52.304;4.870;2023-02-21T08:14:30;102200.19;;;18.15;nan
69245;BME280;56357;52.304;4.870;2023-02-21T08:16:57;102196.16;;;18.11;nan
69245;BME280;56357;52.304;4.870;2023-02-21T08:19:23;102205.06;;;18.08;nan
69245;BME280;56357;52.304;4.870;2023-02-21T08:21:50;102198.09;;;18.10;nan
69245;BME280;56357;52.304;4.870;2023-02-21T08:24:17;102203.19;;;18.13;nan
69245;BME280;56357;52.304;4.870;2023-02-21T08:26:44;102200.66;;;18.12;nan
69245;BME280;56357;52.304;4.870;2023-02-21T08:29:14;102189.69;;;18.10;nan
69245;BME280;56357;52.304;4.870;2023-02-21T08:31:42;102200.19;;;18.15;nan
69245;BME280;56357;52.304;4.870;2023-02-21T08:34:09;102194.31;;;18.16;nan
69245;BME280;56357;52.304;4.870;2023-02-21T08:36:38;102193.47;;;18.16;nan
69245;BME280;56357;52.304;4.870;2023-02-21T08:39:06;102193.19;;;18.17;nan
69245;BME280;56357;52.304;4.870;2023-02-21T08:41:37;102200.91;;;18.10;nan
69245;BME280;56357;52.304;4.870;2023-02-21T08:44:05;102197.84;;;18.12;nan
69245;BME280;56357;52.304;4.870;2023-02-21T08:46:33;102197.38;;;18.15;nan
69245;BME280;56357;52.304;4.870;2023-02-21T08:49:01;102201.00;;;18.15;nan
69245;BME280;56357;52.304;4.870;2023-02-21T08:51:29;102199.31;;;18.14;nan
69245;BME280;56357;52.304;4.870;2023-02-21T08:53:56;102195.22;;;18.05;nan
69245;BME280;56357;52.304;4.870;2023-02-21T08:56:24;102183.47;;;18.08;nan
69245;BME280;56357;52.304;4.870;2023-02-21T08:58:51;102194.78;;;18.13;nan
69245;BME280;56357;52.304;4.870;2023-02-21T09:01:19;102189.69;;;18.10;nan
69245;BME280;56357;52.304;4.870;2023-02-21T09:03:46;102190.56;;;18.11;nan
69245;BME280;56357;52.304;4.870;2023-02-21T09:06:13;102185.91;;;18.16;nan
69245;BME280;56357;52.304;4.870;2023-02-21T09:08:39;102181.38;;;18.15;nan
69245;BME280;56357;52.304;4.870;2023-02-21T09:11:07;102188.19;;;18.19;nan
69245;BME280;56357;52.304;4.870;2023-02-21T09:13:34;102183.56;;;18.13;nan
69245;BME280;56357;52.304;4.870;2023-02-21T09:16:02;102187.31;;;18.31;nan
69245;BME280;56357;52.304;4.870;2023-02-21T09:18:30;102181.13;;;18.28;nan
69245;BME280;56357;52.304;4.870;2023-02-21T09:20:57;102183.31;;;18.26;nan
69245;BME280;56357;52.304;4.870;2023-02-21T09:23:25;102177.22;;;18.18;nan
69245;BME280;56357;52.304;4.870;2023-02-21T09:25:52;102177.44;;;18.28;nan
69245;BME280;56357;52.304;4.870;2023-02-21T09:28:19;102176.88;;;18.14;nan
69245;BME280;56357;52.304;4.870;2023-02-21T09:30:47;102182.38;;;18.21;nan
69245;BME280;56357;52.304;4.870;2023-02-21T09:33:14;102174.91;;;18.26;nan
69245;BME280;56357;52.304;4.870;2023-02-21T09:35:40;102168.28;;;18.33;nan
69245;BME280;56357;52.304;4.870;2023-02-21T09:38:07;102169.28;;;18.26;nan
69245;BME280;56357;52.304;4.870;2023-02-21T09:40:47;102166.50;;;18.26;nan
69245;BME280;56357;52.304;4.870;2023-02-21T09:43:31;102165.22;;;18.34;nan
69245;BME280;56357;52.304;4.870;2023-02-21T09:46:02;102161.31;;;18.35;nan
69245;BME280;56357;52.304;4.870;2023-02-21T09:48:30;102160.72;;;18.33;nan
69245;BME280;56357;52.304;4.870;2023-02-21T09:50:58;102149.84;;;18.37;nan
69245;BME280;56357;52.304;4.870;2023-02-21T09:53:30;102153.25;;;18.39;nan
69245;BME280;56357;52.304;4.870;2023-02-21T09:56:06;102156.03;;;18.39;nan
69245;BME280;56357;52.304;4.870;2023-02-21T09:58:34;102156.44;;;18.42;nan
69245;BME280;56357;52.304;4.870;2023-02-21T10:01:16;102149.34;;;18.40;nan
69245;BME280;56357;52.304;4.870;2023-02-21T10:03:56;102154.34;;;18.38;nan
69245;BME280;56357;52.304;4.870;2023-02-21T10:06:51;102146.44;;;18.35;nan
69245;BME280;56357;52.304;4.870;2023-02-21T10:20:02;102140.56;;;18.48;nan
69245;BME280;56357;52.304;4.870;2023-02-21T10:22:33;102148.38;;;18.46;nan
69245;BME280;56357;52.304;4.870;2023-02-21T10:25:27;102146.19;;;18.48;nan
69245;BME280;56357;52.304;4.870;2023-02-21T10:27:56;102150.94;;;18.36;nan
69245;BME280;56357;52.304;4.870;2023-02-21T10:30:32;102162.44;;;18.34;nan
69245;BME280;56357;52.304;4.870;2023-02-21T10:33:01;102146.81;;;18.38;nan
69245;BME280;56357;52.304;4.870;2023-02-21T10:35:33;102152.53;;;18.43;nan
69245;BME280;56357;52.304;4.870;2023-02-21T10:38:03;102154.81;;;18.46;nan
69245;BME280;56357;52.304;4.870;2023-02-21T10:43:43;102138.25;;;18.45;nan
69245;BME280;56357;52.304;4.870;2023-02-21T10:48:40;102145.22;;;18.42;nan
69245;BME280;56357;52.304;4.870;2023-02-21T10:51:14;102149.94;;;18.42;nan
69245;BME280;56357;52.304;4.870;2023-02-21T10:53:46;102154.94;;;18.51;nan
69245;BME280;56357;52.304;4.870;2023-02-21T10:58:51;102152.72;;;18.53;nan
69245;BME280;56357;52.304;4.870;2023-02-21T11:01:21;102148.47;;;18.51;nan
69245;BME280;56357;52.304;4.870;2023-02-21T11:03:58;102144.56;;;18.52;nan
69245;BME280;56357;52.304;4.870;2023-02-21T11:08:56;102139.97;;;18.46;nan
69245;BME280;56357;52.304;4.870;2023-02-21T11:11:40;102145.91;;;18.49;nan
69245;BME280;56357;52.304;4.870;2023-02-21T11:17:08;102148.06;;;18.59;nan
69245;BME280;56357;52.304;4.870;2023-02-21T11:19:45;102143.25;;;18.43;nan
69245;BME280;56357;52.304;4.870;2023-02-21T11:22:13;102144.72;;;18.45;nan
69245;BME280;56357;52.304;4.870;2023-02-21T11:27:38;102144.47;;;18.47;nan
69245;BME280;56357;52.304;4.870;2023-02-21T11:30:17;102139.78;;;18.52;nan
69245;BME280;56357;52.304;4.870;2023-02-21T11:32:49;102145.06;;;18.49;nan
69245;BME280;56357;52.304;4.870;2023-02-21T11:40:39;102147.19;;;18.58;nan
69245;BME280;56357;52.304;4.870;2023-02-21T11:43:24;102137.91;;;18.58;nan
69245;BME280;56357;52.304;4.870;2023-02-21T11:46:12;102139.63;;;18.59;nan
69245;BME280;56357;52.304;4.870;2023-02-21T11:49:07;102123.91;;;18.91;nan
69245;BME280;56357;52.304;4.870;2023-02-21T11:52:10;102128.09;;;18.72;nan
69245;BME280;56357;52.304;4.870;2023-02-21T11:54:39;102126.72;;;18.74;nan
69245;BME280;56357;52.304;4.870;2023-02-21T11:57:09;102124.53;;;18.76;nan
69245;BME280;56357;52.304;4.870;2023-02-21T11:59:54;102126.22;;;18.77;nan
69245;BME280;56357;52.304;4.870;2023-02-21T12:07:44;102125.69;;;18.64;nan
69245;BME280;56357;52.304;4.870;2023-02-21T12:13:40;102125.72;;;18.80;nan
69245;BME280;56357;52.304;4.870;2023-02-21T12:24:45;102112.25;;;18.66;nan
69245;BME280;56357;52.304;4.870;2023-02-21T12:27:42;102114.50;;;18.80;nan
69245;BME280;56357;52.304;4.870;2023-02-21T12:33:53;102112.25;;;18.99;nan
69245;BME280;56357;52.304;4.870;2023-02-21T12:41:33;102103.06;;;18.87;nan
69245;BME280;56357;52.304;4.870;2023-02-21T12:44:16;102101.06;;;18.82;nan
69245;BME280;56357;52.304;4.870;2023-02-21T12:47:03;102096.47;;;18.76;nan
69245;BME280;56357;52.304;4.870;2023-02-21T12:49:50;102095.75;;;18.69;nan
69245;BME280;56357;52.304;4.870;2023-02-21T12:52:38;102096.00;;;18.68;nan
69245;BME280;56357;52.304;4.870;2023-02-21T12:55:20;102098.34;;;18.71;nan
69245;BME280;56357;52.304;4.870;2023-02-21T12:58:08;102092.88;;;18.64;nan
69245;BME280;56357;52.304;4.870;2023-02-21T13:00:39;102088.97;;;18.82;nan
69245;BME280;56357;52.304;4.870;2023-02-21T13:03:35;102088.91;;;18.77;nan
69245;BME280;56357;52.304;4.870;2023-02-21T13:14:10;102091.00;;;18.70;nan
69245;BME280;56357;52.304;4.870;2023-02-21T13:16:39;102077.75;;;18.65;nan
69245;BME280;56357;52.304;4.870;2023-02-21T13:19:08;102088.97;;;18.82;nan
69245;BME280;56357;52.304;4.870;2023-02-21T13:29:36;102078.09;;;18.69;nan
69245;BME280;56357;52.304;4.870;2023-02-21T13:32:14;102068.06;;;18.73;nan
69245;BME280;56357;52.304;4.870;2023-02-21T13:37:21;102063.63;;;18.77;nan
69245;BME280;56357;52.304;4.870;2023-02-21T13:40:04;102064.56;;;18.82;nan
69245;BME280;56357;52.304;4.870;2023-02-21T13:42:37;102065.91;;;18.80;nan
69245;BME280;56357;52.304;4.870;2023-02-21T13:45:21;102063.38;;;18.78;nan
69245;BME280;56357;52.304;4.870;2023-02-21T13:55:29;102054.44;;;18.65;nan
69245;BME280;56357;52.304;4.870;2023-02-21T14:03:03;102057.66;;;18.73;nan
69245;BME280;56357;52.304;4.870;2023-02-21T14:08:41;102054.63;;;18.75;nan
69245;BME280;56357;52.304;4.870;2023-02-21T14:11:14;102047.97;;;18.81;nan
69245;BME280;56357;52.304;4.870;2023-02-21T14:13:50;102055.69;;;18.90;nan
69245;BME280;56357;52.304;4.870;2023-02-21T14:21:42;102049.38;;;19.00;nan
69245;BME280;56357;52.304;4.870;2023-02-21T14:24:21;102041.31;;;18.87;nan
69245;BME280;56357;52.304;4.870;2023-02-21T14:32:41;102038.28;;;18.72;nan
69245;BME280;56357;52.304;4.870;2023-02-21T14:35:31;102039.13;;;18.72;nan
69245;BME280;56357;52.304;4.870;2023-02-21T14:38:13;102040.06;;;18.78;nan
69245;BME280;56357;52.304;4.870;2023-02-21T14:43:28;102037.53;;;18.76;nan
69245;BME280;56357;52.304;4.870;2023-02-21T14:46:11;102035.63;;;18.82;nan
69245;BME280;56357;52.304;4.870;2023-02-21T14:49:05;102034.03;;;18.69;nan
69245;BME280;56357;52.304;4.870;2023-02-21T14:52:09;102030.06;;;18.65;nan
69245;BME280;56357;52.304;4.870;2023-02-21T14:58:31;102035.66;;;18.65;nan
69245;BME280;56357;52.304;4.870;2023-02-21T15:01:05;102026.38;;;18.65;nan
69245;BME280;56357;52.304;4.870;2023-02-21T15:03:43;102030.63;;;18.67;nan
69245;BME280;56357;52.304;4.870;2023-02-21T15:06:17;102035.06;;;18.63;nan
69245;BME280;56357;52.304;4.870;2023-02-21T15:08:49;102025.69;;;18.74;nan
69245;BME280;56357;52.304;4.870;2023-02-21T15:14:11;102030.94;;;18.87;nan
69245;BME280;56357;52.304;4.870;2023-02-21T15:16:44;102026.69;;;18.85;nan
69245;BME280;56357;52.304;4.870;2023-02-21T15:19:24;102028.41;;;18.86;nan
69245;BME280;56357;52.304;4.870;2023-02-21T15:22:22;102022.94;;;18.96;nan
69245;BME280;56357;52.304;4.870;2023-02-21T15:27:35;102023.06;;;18.68;nan
69245;BME280;56357;52.304;4.870;2023-02-21T15:30:13;102026.03;;;18.78;nan
69245;BME280;56357;52.304;4.870;2023-02-21T15:32:39;102021.78;;;18.75;nan
69245;BME280;56357;52.304;4.870;2023-02-21T15:35:10;102018.88;;;18.87;nan
69245;BME280;56357;52.304;4.870;2023-02-21T15:37:39;102020.31;;;18.89;nan
69245;BME280;56357;52.304;4.870;2023-02-21T15:40:14;102021.06;;;18.85;nan
69245;BME280;56357;52.304;4.870;2023-02-21T15:42:43;102027.91;;;18.72;nan
69245;BME280;56357;52.304;4.870;2023-02-21T15:45:17;102015.16;;;18.65;nan
69245;BME280;56357;52.304;4.870;2023-02-21T15:47:45;102019.50;;;18.72;nan
69245;BME280;56357;52.304;4.870;2023-02-21T15:50:16;102020.69;;;18.76;nan
69245;BME280;56357;52.304;4.870;2023-02-21T15:52:48;102025.44;;;18.76;nan
69245;BME280;56357;52.304;4.870;2023-02-21T15:58:08;102018.84;;;18.65;nan
69245;BME280;56357;52.304;4.870;2023-02-21T16:00:40;102017.44;;;18.68;nan
69245;BME280;56357;52.304;4.870;2023-02-21T16:03:33;102015.75;;;18.67;nan
69245;BME280;56357;52.304;4.870;2023-02-21T16:08:53;102020.59;;;18.71;nan
69245;BME280;56357;52.304;4.870;2023-02-21T16:11:25;102012.69;;;18.68;nan
69245;BME280;56357;52.304;4.870;2023-02-21T16:13:52;102012.75;;;18.73;nan
69245;BME280;56357;52.304;4.870;2023-02-21T16:16:19;102020.34;;;18.73;nan